FSBRASIL

FSBRASIL - Desde 2006



 INFORMACIÓN METAR y TAF
METAR FOR SBSP
ADDS - METARS form results

(1651 UTC 27 September 2020)
Data provider http://aviationweather.gov/metar/data/
 
METAR text: SBSP 271600Z 31015KT CAVOK 33/07 Q1014
Conditions at: SBSP (SAO PAULO/CONGON, BR) observed 1600 UTC 27 September 2020
Temperature: 33.0°C (91°F)
Dewpoint: 7.0°C (45°F) [RH = 20%]
Pressure (altimeter): 29.94 inches Hg (1014.0 mb)
Winds: from the NW (310 degrees) at 17 MPH (15 knots; 7.7 m/s)
Visibility: 6 or more miles (10+ km)
Ceiling: ceiling and visibility are OK
Clouds: unknown
Weather: no significant weather observed at this time

Forecast for: SBSP (SAO PAULO/CONGON, BR)
Text: TAF SBSP 271600Z 2718/2806 35013KT CAVOK TX33/2718Z TN21/2805Z
Forecast period: 1800 to 1900 UTC 27 September 2020
Forecast type: FROM: standard forecast or significant change
Winds: from the N (350 degrees) at 15 MPH (13 knots; 6.7 m/s)
Visibility: 6 or more miles (10+ km)
Ceiling: unknown
Clouds: missing
Weather: no significant weather forecast for this period
Text: BECMG 2719/2721 06007KT RMK PGD
Forecast period: 1900 UTC 27 September 2020 to 0600 UTC 28 September 2020
Forecast type: BECOMING: Conditions expected to become as follows by 2100 UTC 27 September 2020
Winds: from the ENE (60 degrees) at 8 MPH (7 knots; 3.6 m/s)
Visibility: 6 or more miles (10+ km)
Ceiling: unknown
Clouds: missing
Weather: no significant weather forecast for this period

 MAPA DE AEROPUERTO

 INFORMACIÓN DE PISTA